Sunday, June 17, 2018, 10:05 PM EDT
Back to Local

KEWB, New Bedford Regional Airport

Location: New Bedford, MA, United States Lat: 41.683
Local Time: 10:05 PM EDT ( 2:05 GMT) Lon: -70.967
Time Zone: US/Eastern Elev: 78 ft

Show me the last for .
Show Decoded

2018-06-17 21:53 METAR KEWB 180153Z 19004KT 10SM CLR 18/16 A3008 RMK AO2 SLP185 T01780161 =
2018-06-17 20:53 METAR KEWB 180053Z 18005KT 10SM CLR 19/16 A3007 RMK AO2 SLP183 T01940161 =
2018-06-17 19:53 METAR KEWB 172353Z 19007KT 10SM CLR 22/16 A3008 RMK AO2 SLP186 T02170156 10300
                 20217 53005 =
2018-06-17 18:53 METAR KEWB 172253Z 19008KT 10SM CLR 23/14 A3008 RMK AO2 SLP184 T02330139 =
2018-06-17 17:53 METAR KEWB 172153Z 21009KT 10SM CLR 26/14 A3007 RMK AO2 SLP181 T02560139 =
2018-06-17 16:53 METAR KEWB 172053Z 20011KT 10SM CLR 27/13 A3007 RMK AO2 SLP180 T02720128 52007 =
2018-06-17 15:53 METAR KEWB 171953Z 21012KT 10SM CLR 29/13 A3006 RMK AO2 SLP179 T02890128 =
2018-06-17 14:53 METAR KEWB 171853Z 20012KT 10SM CLR 29/14 A3005 RMK AO2 SLP175 T02940139 =
2018-06-17 13:53 METAR KEWB 171753Z 18009KT 10SM CLR 30/16 A3005 RMK AO2 SLP174 T03000156 10300
                 20217 58010 =
2018-06-17 12:53 METAR KEWB 171653Z 14009KT 10SM CLR 29/16 A3005 RMK AO2 SLP175 T02940156 =
2018-06-17 11:53 METAR KEWB 171553Z 23006KT 10SM CLR 30/14 A3008 RMK AO2 SLP184 T03000144 =
2018-06-17 10:53 METAR KEWB 171453Z 29004KT 10SM CLR 28/14 A3008 RMK AO2 SLP184 T02830139 51012 =
2018-06-17 09:53 METAR KEWB 171353Z 00000KT 10SM CLR 27/16 A3006 RMK AO2 SLP180 T02720161 =
2018-06-17 08:53 METAR KEWB 171253Z VRB04KT 10SM CLR 26/16 A3006 RMK AO2 SLP178 T02560156 =
2018-06-17 07:53 METAR KEWB 171153Z 00000KT 10SM CLR 22/16 A3004 RMK AO2 SLP173 T02220156 10222
                 20128 53007 =
2018-06-17 06:53 METAR KEWB 171053Z 00000KT 10SM CLR 17/15 A3004 RMK AO2 SLP170 T01720150 =
2018-06-17 05:53 METAR KEWB 170953Z AUTO 00000KT 10SM CLR 14/12 A3002 RMK AO2 SLP167 T01390122 =
2018-06-17 04:53 METAR KEWB 170853Z AUTO 00000KT 10SM CLR 14/12 A3002 RMK AO2 SLP165 T01390122
                 53008 =
2018-06-17 03:53 METAR KEWB 170753Z AUTO 00000KT 10SM CLR 14/13 A3001 RMK AO2 SLP161 T01390128 =
2018-06-17 02:53 METAR KEWB 170653Z AUTO 00000KT 10SM CLR 14/13 A3000 RMK AO2 SLP157 T01390133 =
2018-06-17 01:53 METAR KEWB 170553Z AUTO 21004KT 10SM CLR 14/13 A3000 RMK AO2 SLP157 T01390128
                 10228 20139 50001 =
2018-06-17 00:53 METAR KEWB 170453Z AUTO 19003KT 10SM CLR 16/13 A3000 RMK AO2 SLP159 T01560133
                 402940117 =
2018-06-16 23:53 METAR KEWB 170353Z AUTO 18003KT 10SM CLR 16/13 A3001 RMK AO2 SLP161 T01560128 =
2018-06-16 22:53 METAR KEWB 170253Z AUTO 19003KT 10SM CLR 17/13 A2999 RMK AO2 SLP157 T01670128
                 51016 =

Support USWX by starting your Amazon purchase here.